UKOO Airport Information

Runway Information
Runway 07 Length 1815 ft width 197 ft
Elevation 0 ft Threshold 0 ft Heading 75
Runway 25 Length 1815 ft Width 197 ft
Elevation 0 ft Threshold 0 ft Heading 255
Runway 16 Length 9183 ft width 184 ft
Elevation 172 ft Threshold 0 ft Heading 163
Runway 34 Length 9183 ft Width 184 ft
Elevation 165 ft Threshold 0 ft Heading 343
Runway 18 Length 2950 ft width 190 ft
Elevation 0 ft Threshold 0 ft Heading 182
Runway 36 Length 2950 ft Width 190 ft
Elevation 0 ft Threshold 0 ft Heading 2
Airport Frequencies
Type APP Name RADAR Frequency 120.9 MHZ
Type ATIS Name ATIS Frequency 124.8 MHZ
Type GND Name GND Frequency 121.8 MHZ
Type TWR Name TWR Frequency 125.5 MHZ
Airport Navaids
Type VOR-DME Name Odesa Frequency 113950 KHZ
Airport Weather Information & NOTAM
ADDS - METARS form results

(1519 UTC 26 September 2021)
Data provider http://aviationweather.gov/metar/data/
 
METAR text: UKOO 261500Z 32006MPS CAVOK 22/10 Q1019 R34/090095 NOSIG
Conditions at: UKOO (ODESSA/TSENTRALN, UA) observed 1500 UTC 26 September 2021
Temperature: 22.0°C (72°F)
Dewpoint: 10.0°C (50°F) [RH = 46%]
Pressure (altimeter): 30.09 inches Hg (1019.0 mb)
Winds: from the NW (320 degrees) at 14 MPH (12 knots; 6.2 m/s)
Visibility: 6 or more miles (10+ km)
Ceiling: ceiling and visibility are OK
Clouds: unknown
Weather: no significant weather observed at this time

METAR text: UKOO 261430Z 31006MPS CAVOK 22/09 Q1019 R34/090095 NOSIG
Conditions at: UKOO (ODESSA/TSENTRALN, UA) observed 1430 UTC 26 September 2021
Temperature: 22.0°C (72°F)
Dewpoint: 9.0°C (48°F) [RH = 43%]
Pressure (altimeter): 30.09 inches Hg (1019.0 mb)
Winds: from the NW (310 degrees) at 14 MPH (12 knots; 6.2 m/s)
Visibility: 6 or more miles (10+ km)
Ceiling: ceiling and visibility are OK
Clouds: unknown
Weather: no significant weather observed at this time

Forecast for: UKOO (ODESSA/TSENTRALN, UA)
Text: TAF UKOO 261108Z 2612/2712 32006G12MPS 6000 BKN025
Forecast period: 1200 UTC 26 September 2021 to 0200 UTC 27 September 2021
Forecast type: FROM: standard forecast or significant change
Winds: from the NW (320 degrees) at 14 MPH (12 knots; 6.2 m/s)
gusting to 26 MPH (23 knots; 11.8 m/s)
Visibility: 4 miles (6 km)
Ceiling: 2500 feet AGL
Clouds: broken clouds at 2500 feet AGL
Weather: no significant weather forecast for this period
Text: BECMG 2702/2703 03003MPS
Forecast period: 0200 to 1200 UTC 27 September 2021
Forecast type: BECOMING: Conditions expected to become as follows by 0300 UTC 27 September 2021
Winds: from the NNE (30 degrees) at 7 MPH (6 knots; 3.1 m/s)
Visibility: 4 miles (6 km)
Ceiling: 2500 feet AGL
Clouds: broken clouds at 2500 feet AGL
Weather: no significant weather forecast for this period